createdAt,value
2019-02-19T00:00:05.104Z,101187.62
2019-02-19T00:02:34.102Z,101177.07
2019-02-19T00:05:03.501Z,101180.06
2019-02-19T00:07:32.511Z,101174.15
2019-02-19T00:10:01.602Z,101177.94
2019-02-19T00:12:30.650Z,101177.52
2019-02-19T00:15:07.703Z,101169.06
2019-02-19T00:17:30.441Z,101164.44
2019-02-19T00:19:59.516Z,101160.23
2019-02-19T00:22:28.536Z,101164.89
2019-02-19T00:24:57.581Z,101159.84
2019-02-19T00:27:26.614Z,101161.95
2019-02-19T00:29:55.689Z,101153.88
2019-02-19T00:32:24.703Z,101159.32
2019-02-19T00:34:53.771Z,101163.11
2019-02-19T00:37:22.833Z,101157.98
2019-02-19T00:39:51.842Z,101154.12
2019-02-19T00:42:21.174Z,101159.15
2019-02-19T00:44:50.237Z,101156.99
2019-02-19T00:47:19.259Z,101161.19
2019-02-19T00:49:48.324Z,101152.68
2019-02-19T00:52:17.709Z,101154.36
2019-02-19T00:54:46.760Z,101155.17
2019-02-19T00:57:15.777Z,101148.78
2019-02-19T00:59:45.183Z,101148.80
2019-02-19T01:02:14.191Z,101147.53
2019-02-19T01:04:43.255Z,101146.66
2019-02-19T01:07:12.268Z,101146.72
2019-02-19T01:09:41.314Z,101152.28
2019-02-19T01:12:10.362Z,101149.41
2019-02-19T01:14:39.539Z,101142.63
2019-02-19T01:17:08.868Z,101147.28
2019-02-19T01:19:37.911Z,101152.78
2019-02-19T01:22:07.043Z,101147.70
2019-02-19T01:24:36.410Z,101152.83
2019-02-19T01:27:05.471Z,101142.61
2019-02-19T01:29:34.533Z,101127.84
2019-02-19T01:32:03.491Z,101126.51
2019-02-19T01:34:32.517Z,101130.79
2019-02-19T01:37:01.580Z,101130.33
2019-02-19T01:39:30.593Z,101121.86
2019-02-19T01:41:59.627Z,101127.39
2019-02-19T01:44:28.686Z,101126.11
2019-02-19T01:46:57.703Z,101122.77
2019-02-19T01:49:26.758Z,101117.69
2019-02-19T01:51:56.285Z,101114.70
2019-02-19T01:54:25.323Z,101112.17
2019-02-19T01:56:54.382Z,101110.89
2019-02-19T01:59:23.401Z,101096.50
2019-02-19T02:01:52.470Z,101101.58
2019-02-19T02:04:21.530Z,101094.47
2019-02-19T02:06:50.398Z,101092.39
2019-02-19T02:09:19.458Z,101089.52
2019-02-19T02:11:48.540Z,101084.87
2019-02-19T02:14:17.562Z,101081.53
2019-02-19T02:16:46.587Z,101079.39
2019-02-19T02:19:15.648Z,101080.59
2019-02-19T02:21:44.682Z,101075.98
2019-02-19T02:24:13.782Z,101078.94
2019-02-19T02:26:42.851Z,101072.97
2019-02-19T02:29:11.810Z,101063.59
2019-02-19T02:31:40.851Z,101072.91
2019-02-19T02:34:09.934Z,101066.09
2019-02-19T02:36:38.874Z,101063.10
2019-02-19T02:39:08.208Z,101060.16
2019-02-19T02:41:37.255Z,101061.83
2019-02-19T02:44:06.624Z,101072.80
2019-02-19T02:46:35.681Z,101069.89
2019-02-19T02:49:04.646Z,101070.72
2019-02-19T02:51:33.662Z,101060.49
2019-02-19T02:54:03.033Z,101067.27
2019-02-19T02:56:32.025Z,101072.33
2019-02-19T02:59:01.047Z,101072.70
2019-02-19T03:01:30.120Z,101076.55
2019-02-19T03:03:59.126Z,101074.83
2019-02-19T03:06:47.484Z,101066.43
2019-02-19T03:09:16.566Z,101072.36
2019-02-19T03:11:45.478Z,101074.02
2019-02-19T03:14:14.540Z,101079.09
2019-02-19T03:16:43.617Z,101096.96
2019-02-19T03:19:12.632Z,101093.48
2019-02-19T03:21:41.704Z,101085.09
2019-02-19T03:24:11.072Z,101096.88
2019-02-19T03:26:40.087Z,101093.58
2019-02-19T03:29:09.086Z,101098.69
2019-02-19T03:31:38.404Z,101101.23
2019-02-19T03:34:07.471Z,101090.64
2019-02-19T03:36:36.496Z,101095.33
2019-02-19T03:39:05.988Z,101088.55
2019-02-19T03:41:35.050Z,101088.16
2019-02-19T03:44:04.070Z,101084.87
2019-02-19T03:46:33.416Z,101079.34
2019-02-19T03:49:02.441Z,101075.13
2019-02-19T03:51:31.461Z,101076.88
2019-02-19T03:54:00.620Z,101081.09
2019-02-19T03:56:29.647Z,101083.23
2019-02-19T03:58:59.065Z,101081.97
2019-02-19T04:01:28.138Z,101082.86
2019-02-19T04:03:57.218Z,101077.80
2019-02-19T04:06:26.615Z,101085.03
2019-02-19T04:08:55.930Z,101079.94
2019-02-19T04:11:24.996Z,101079.88
2019-02-19T04:13:54.051Z,101090.55
2019-02-19T04:16:23.071Z,101085.53
2019-02-19T04:18:52.387Z,101080.50
2019-02-19T04:21:21.359Z,101087.27
2019-02-19T04:23:50.358Z,101074.62
2019-02-19T04:26:19.699Z,101086.45
2019-02-19T04:28:48.769Z,101081.81
2019-02-19T04:31:17.819Z,101081.42
2019-02-19T04:33:46.874Z,101083.12
2019-02-19T04:36:15.880Z,101082.30
2019-02-19T04:38:44.927Z,101070.44
2019-02-19T04:41:14.014Z,101087.78
2019-02-19T04:43:42.982Z,101078.47
2019-02-19T04:46:12.400Z,101076.79
2019-02-19T04:48:41.345Z,101070.42
2019-02-19T04:51:10.358Z,101070.38
2019-02-19T04:53:39.402Z,101066.97
2019-02-19T04:56:08.419Z,101060.22
2019-02-19T04:58:37.474Z,101060.22
2019-02-19T05:01:06.493Z,101053.87
2019-02-19T05:03:35.571Z,101062.77
2019-02-19T05:06:04.587Z,101071.19
2019-02-19T05:08:33.625Z,101069.95
2019-02-19T05:11:02.731Z,101076.73
2019-02-19T05:13:31.674Z,101074.20
2019-02-19T05:16:00.702Z,101075.47
2019-02-19T05:18:29.793Z,101081.37
2019-02-19T05:20:58.864Z,101077.16
2019-02-19T05:23:27.875Z,101070.81
2019-02-19T05:25:56.952Z,101077.11
2019-02-19T05:28:25.928Z,101065.31
2019-02-19T05:30:55.266Z,101065.31
2019-02-19T05:33:24.250Z,101061.90
2019-02-19T05:35:53.181Z,101073.77
2019-02-19T05:38:22.183Z,101059.83
2019-02-19T05:40:51.274Z,101067.81
2019-02-19T05:43:20.330Z,101072.88
2019-02-19T05:45:49.711Z,101070.78
2019-02-19T05:48:18.726Z,101072.86
2019-02-19T05:50:48.050Z,101067.37
2019-02-19T05:53:17.466Z,101080.08
2019-02-19T05:55:46.536Z,101074.59
2019-02-19T05:58:15.568Z,101087.29
2019-02-19T06:00:44.615Z,101088.14
2019-02-19T06:03:13.971Z,101090.27
2019-02-19T06:05:42.990Z,101086.44
2019-02-19T06:08:12.011Z,101089.79
2019-02-19T06:10:41.038Z,101092.34
2019-02-19T06:13:10.390Z,101084.37
2019-02-19T06:15:39.367Z,101093.22
2019-02-19T06:18:08.237Z,101078.91
2019-02-19T06:20:37.287Z,101084.77
2019-02-19T06:23:06.310Z,101091.51
2019-02-19T06:25:35.367Z,101092.78
2019-02-19T06:28:04.377Z,101092.84
2019-02-19T06:30:33.425Z,101096.23
2019-02-19T06:33:02.403Z,101097.48
2019-02-19T06:35:31.286Z,101105.05
2019-02-19T06:38:00.334Z,101107.17
2019-02-19T06:40:29.964Z,101104.21
2019-02-19T06:42:58.970Z,101105.09
2019-02-19T06:45:27.918Z,101101.72
2019-02-19T06:47:56.970Z,101105.97
2019-02-19T06:50:26.029Z,101108.45
2019-02-19T06:52:55.050Z,101123.67
2019-02-19T06:55:24.477Z,101121.98
2019-02-19T06:57:53.549Z,101121.95
2019-02-19T07:00:22.633Z,101124.94
2019-02-19T07:02:59.756Z,101126.22
2019-02-19T07:05:28.894Z,101126.20
2019-02-19T07:07:57.921Z,101128.37
2019-02-19T07:10:27.019Z,101133.81
2019-02-19T07:12:56.039Z,101132.95
2019-02-19T07:15:25.058Z,101132.95
2019-02-19T07:17:54.125Z,101126.22
2019-02-19T07:20:23.193Z,101130.02
2019-02-19T07:22:52.280Z,101137.20
2019-02-19T07:25:21.448Z,101136.34
2019-02-19T07:27:50.505Z,101134.66
2019-02-19T07:30:19.568Z,101138.03
2019-02-19T07:32:48.631Z,101141.00
2019-02-19T07:35:17.668Z,101150.33
2019-02-19T07:37:47.071Z,101156.66
2019-02-19T07:40:17.504Z,101150.74
2019-02-19T07:42:46.585Z,101161.27
2019-02-19T07:45:15.658Z,101150.70
2019-02-19T07:47:44.605Z,101159.98
2019-02-19T07:50:13.626Z,101151.11
2019-02-19T07:52:42.533Z,101154.00
2019-02-19T07:55:11.549Z,101152.19
2019-02-19T07:57:42.825Z,101152.12
2019-02-19T08:00:11.711Z,101142.31
2019-02-19T08:02:40.737Z,101145.25
2019-02-19T08:05:10.134Z,101150.31
2019-02-19T08:07:39.220Z,101141.03
2019-02-19T08:10:08.510Z,101153.62
2019-02-19T08:12:37.616Z,101144.30
2019-02-19T08:15:06.947Z,101153.22
2019-02-19T08:17:36.312Z,101148.59
2019-02-19T08:20:05.701Z,101144.84
2019-02-19T08:22:35.086Z,101149.35
2019-02-19T08:25:04.237Z,101147.34
2019-02-19T08:27:33.330Z,101149.82
2019-02-19T08:30:02.345Z,101153.20
2019-02-19T08:32:31.351Z,101149.35
2019-02-19T08:35:00.432Z,101152.74
2019-02-19T08:37:29.327Z,101152.20
2019-02-19T08:39:58.310Z,101158.11
2019-02-19T08:42:27.340Z,101155.63
2019-02-19T08:44:56.351Z,101157.71
2019-02-19T08:47:25.414Z,101146.75
2019-02-19T08:49:54.349Z,101153.81
2019-02-19T08:52:23.363Z,101150.40
2019-02-19T08:54:52.434Z,101157.65
2019-02-19T08:57:21.493Z,101147.88
2019-02-19T08:59:50.558Z,101153.69
2019-02-19T09:02:19.574Z,101159.19
2019-02-19T09:04:48.647Z,101158.34
2019-02-19T09:07:17.761Z,101145.77
2019-02-19T09:09:46.737Z,101150.00
2019-02-19T09:12:15.728Z,101149.94
2019-02-19T09:14:44.706Z,101155.00
2019-02-19T09:17:13.664Z,101153.25
2019-02-19T09:19:42.716Z,101162.22
2019-02-19T09:22:11.652Z,101153.77
2019-02-19T09:24:40.647Z,101153.45
2019-02-19T09:27:09.662Z,101160.38
2019-02-19T09:29:38.672Z,101157.41
2019-02-19T09:32:07.955Z,101164.61
2019-02-19T09:34:36.892Z,101155.69
2019-02-19T09:37:05.929Z,101156.14
2019-02-19T09:39:34.969Z,101159.45
2019-02-19T09:42:03.995Z,101154.81
2019-02-19T09:44:32.957Z,101156.86
2019-02-19T09:47:05.153Z,101149.30
2019-02-19T09:49:34.134Z,101156.86
2019-02-19T09:52:03.124Z,101153.92
2019-02-19T09:54:32.134Z,101167.38
2019-02-19T09:57:01.181Z,101159.47
2019-02-19T09:59:30.223Z,101162.45
2019-02-19T10:01:59.279Z,101168.39
2019-02-19T10:04:28.286Z,101164.95
2019-02-19T10:06:57.336Z,101162.84
2019-02-19T10:09:26.224Z,101164.08
2019-02-19T10:11:55.349Z,101166.14
2019-02-19T10:14:24.333Z,101169.02
2019-02-19T10:16:53.419Z,101168.55
2019-02-19T10:19:22.466Z,101161.85
2019-02-19T10:21:51.473Z,101165.70
2019-02-19T10:24:20.457Z,101161.94
2019-02-19T10:26:49.753Z,101167.85
2019-02-19T10:29:18.890Z,101163.56
2019-02-19T10:31:47.941Z,101177.45
2019-02-19T10:34:17.312Z,101179.02
2019-02-19T10:36:46.312Z,101172.63
2019-02-19T10:39:15.323Z,101174.83
2019-02-19T10:41:44.341Z,101179.18
2019-02-19T10:44:13.404Z,101172.35
2019-02-19T10:46:42.458Z,101170.69
2019-02-19T10:49:11.818Z,101179.02
2019-02-19T10:51:40.884Z,101175.11
2019-02-19T10:54:09.899Z,101179.87
2019-02-19T10:56:38.932Z,101185.97
2019-02-19T10:59:08.033Z,101178.77
2019-02-19T11:01:37.369Z,101180.86
2019-02-19T11:04:06.385Z,101188.45
2019-02-19T11:06:35.463Z,101188.52
2019-02-19T11:09:05.330Z,101178.86
2019-02-19T11:11:34.338Z,101175.48
2019-02-19T11:14:03.406Z,101183.45
2019-02-19T11:16:32.358Z,101185.94
2019-02-19T11:19:01.421Z,101176.20
2019-02-19T11:21:30.522Z,101185.92
2019-02-19T11:23:59.533Z,101180.32
2019-02-19T11:26:28.596Z,101188.84
2019-02-19T11:28:57.612Z,101184.25
2019-02-19T11:31:26.635Z,101176.89
2019-02-19T11:33:55.690Z,101182.72
2019-02-19T11:36:24.713Z,101166.53
2019-02-19T11:38:53.690Z,101172.32
2019-02-19T11:41:22.714Z,101181.90
2019-02-19T11:43:52.131Z,101170.88
2019-02-19T11:46:21.141Z,101178.05
2019-02-19T11:48:50.549Z,101181.22
2019-02-19T11:51:19.568Z,101182.17
2019-02-19T11:53:48.623Z,101176.66
2019-02-19T11:56:18.035Z,101175.50
2019-02-19T11:58:46.990Z,101172.87
2019-02-19T12:01:16.013Z,101183.52
2019-02-19T12:03:45.353Z,101174.44
2019-02-19T12:06:14.617Z,101178.66
2019-02-19T12:08:43.638Z,101175.09
2019-02-19T12:11:12.987Z,101180.59
2019-02-19T12:13:42.007Z,101172.58
2019-02-19T12:16:11.053Z,101167.68
2019-02-19T12:18:46.301Z,101159.11
2019-02-19T12:21:11.166Z,101165.87
2019-02-19T12:23:40.519Z,101177.77
2019-02-19T12:26:09.543Z,101159.97
2019-02-19T12:28:38.548Z,101163.05
2019-02-19T12:31:07.568Z,101167.09
2019-02-19T12:33:36.877Z,101170.49
2019-02-19T12:36:05.934Z,101167.27
2019-02-19T12:38:34.879Z,101164.45
2019-02-19T12:41:03.941Z,101169.02
2019-02-19T12:43:32.957Z,101176.53
2019-02-19T12:46:01.935Z,101168.95
2019-02-19T12:48:31.006Z,101169.72
2019-02-19T12:51:00.052Z,101166.17
2019-02-19T12:53:29.418Z,101167.66
2019-02-19T12:55:58.479Z,101168.87
2019-02-19T12:58:27.494Z,101169.14
2019-02-19T13:00:56.556Z,101174.06
2019-02-19T13:03:25.611Z,101171.63
2019-02-19T13:05:54.667Z,101173.48
2019-02-19T13:08:23.746Z,101177.33
2019-02-19T13:10:52.695Z,101177.17
2019-02-19T13:13:21.701Z,101175.75
2019-02-19T13:15:50.676Z,101166.05
2019-02-19T13:18:19.738Z,101173.34
2019-02-19T13:20:48.807Z,101177.25
2019-02-19T13:23:17.857Z,101175.19
2019-02-19T13:25:46.884Z,101180.51
2019-02-19T13:28:15.924Z,101194.92
2019-02-19T13:30:44.985Z,101182.03
2019-02-19T13:33:14.038Z,101186.71
2019-02-19T13:35:43.045Z,101183.28
2019-02-19T13:38:12.097Z,101182.41
2019-02-19T13:40:41.143Z,101179.47
2019-02-19T13:43:10.446Z,101188.75
2019-02-19T13:45:39.497Z,101192.45
2019-02-19T13:48:08.550Z,101183.75
2019-02-19T13:50:37.940Z,101181.62
2019-02-19T13:53:31.996Z,101184.94
2019-02-19T13:56:02.440Z,101195.05
2019-02-19T13:58:31.450Z,101198.96
2019-02-19T14:01:00.505Z,101192.28
2019-02-19T14:03:29.561Z,101193.39
2019-02-19T14:05:58.587Z,101201.03
2019-02-19T14:08:27.533Z,101193.72
2019-02-19T14:10:56.581Z,101199.15
2019-02-19T14:13:25.604Z,101205.50
2019-02-19T14:16:04.830Z,101190.20
2019-02-19T14:18:48.736Z,101200.27
2019-02-19T14:21:35.917Z,101201.22
2019-02-19T14:24:30.791Z,101198.61
2019-02-19T14:27:24.814Z,101205.33
2019-02-19T14:30:12.021Z,101200.22
2019-02-19T14:33:06.560Z,101208.33
2019-02-19T14:36:13.383Z,101204.89
2019-02-19T14:39:05.497Z,101213.35
2019-02-19T14:42:02.787Z,101212.02
2019-02-19T14:44:59.611Z,101217.20
2019-02-19T14:48:02.031Z,101220.23
2019-02-19T14:50:52.935Z,101216.58
2019-02-19T14:53:40.866Z,101225.06
2019-02-19T14:56:28.891Z,101222.30
2019-02-19T14:59:20.620Z,101237.54
2019-02-19T15:02:08.616Z,101235.02
2019-02-19T15:05:05.402Z,101222.81
2019-02-19T15:08:02.583Z,101241.00
2019-02-19T15:10:56.448Z,101235.52
2019-02-19T15:13:47.640Z,101244.42
2019-02-19T15:16:44.848Z,101240.66
2019-02-19T15:19:39.469Z,101242.41
2019-02-19T15:22:30.305Z,101246.63
2019-02-19T15:25:24.622Z,101250.91
2019-02-19T15:28:12.951Z,101242.89
2019-02-19T15:30:59.602Z,101252.21
2019-02-19T15:33:49.308Z,101251.80
2019-02-19T15:36:34.287Z,101252.28
2019-02-19T15:39:20.932Z,101256.49
2019-02-19T15:42:08.963Z,101262.83
2019-02-19T15:44:48.879Z,101265.41
2019-02-19T15:47:39.677Z,101266.25
2019-02-19T15:50:16.014Z,101266.72
2019-02-19T15:52:56.105Z,101269.67
2019-02-19T15:55:43.962Z,101271.75
2019-02-19T15:58:30.654Z,101273.87
2019-02-19T16:01:17.624Z,101270.94
2019-02-19T16:04:01.204Z,101275.15
2019-02-19T16:06:48.832Z,101262.52
2019-02-19T16:09:35.638Z,101272.76
2019-02-19T16:12:23.635Z,101270.70
2019-02-19T16:15:12.239Z,101276.63
2019-02-19T16:17:56.388Z,101278.77
2019-02-19T16:20:53.708Z,101283.85
2019-02-19T16:23:41.816Z,101286.41
2019-02-19T16:26:38.341Z,101290.20
2019-02-19T16:29:34.309Z,101291.09
2019-02-19T16:32:28.483Z,101294.97
2019-02-19T16:35:07.457Z,101305.14
2019-02-19T16:37:47.099Z,101306.86
2019-02-19T16:40:38.338Z,101313.22
2019-02-19T16:43:25.095Z,101315.36
2019-02-19T16:46:11.977Z,101329.34
2019-02-19T16:48:48.936Z,101329.36
2019-02-19T16:51:35.773Z,101336.59
2019-02-19T16:54:26.971Z,101328.13
2019-02-19T16:57:01.543Z,101336.11
2019-02-19T16:59:50.515Z,101344.97
2019-02-19T17:02:27.514Z,101349.63
2019-02-19T17:05:34.294Z,101349.60
2019-02-19T17:08:31.392Z,101347.06
2019-02-19T17:11:10.633Z,101352.97
2019-02-19T17:13:58.594Z,101349.59
2019-02-19T17:16:36.654Z,101356.77
2019-02-19T17:19:43.707Z,101362.67
2019-02-19T17:22:40.654Z,101365.19
2019-02-19T17:25:31.231Z,101360.13
2019-02-19T17:28:37.944Z,101365.61
2019-02-19T17:31:24.530Z,101363.07
2019-02-19T17:34:11.731Z,101363.48
2019-02-19T17:36:58.420Z,101369.86
2019-02-19T17:40:05.129Z,101369.83
2019-02-19T17:42:48.061Z,101371.52
2019-02-19T17:45:38.758Z,101381.30
2019-02-19T17:48:29.582Z,101383.83
2019-02-19T17:51:29.730Z,101386.75
2019-02-19T17:54:17.795Z,101395.22
2019-02-19T17:57:11.192Z,101397.72
2019-02-19T17:59:59.545Z,101393.49
2019-02-19T18:02:36.625Z,101385.50
2019-02-19T18:05:37.002Z,101393.52
2019-02-19T18:08:16.351Z,101388.45
2019-02-19T18:10:58.496Z,101402.83
2019-02-19T18:13:41.497Z,101406.22
2019-02-19T18:16:29.532Z,101410.45
2019-02-19T18:18:58.594Z,101409.16
2019-02-19T18:21:27.609Z,101416.31
2019-02-19T18:23:56.902Z,101410.41
2019-02-19T18:26:25.926Z,101410.01
2019-02-19T18:28:54.920Z,101407.02
2019-02-19T18:31:24.242Z,101418.88
2019-02-19T18:33:53.246Z,101415.48
2019-02-19T18:36:22.661Z,101410.88
2019-02-19T18:38:51.703Z,101415.07
2019-02-19T18:41:21.102Z,101426.08
2019-02-19T18:43:50.441Z,101426.95
2019-02-19T18:46:19.471Z,101418.07
2019-02-19T18:48:48.476Z,101413.84
2019-02-19T18:51:17.493Z,101423.55
2019-02-19T18:53:47.076Z,101411.72
2019-02-19T18:56:16.120Z,101420.22
2019-02-19T18:58:45.137Z,101422.79
2019-02-19T19:01:14.213Z,101423.64
2019-02-19T19:03:43.578Z,101423.24
2019-02-19T19:06:12.626Z,101424.09
2019-02-19T19:08:41.646Z,101421.14
2019-02-19T19:11:10.705Z,101425.34
2019-02-19T19:13:40.110Z,101424.50
2019-02-19T19:16:09.147Z,101424.08
2019-02-19T19:18:38.155Z,101427.02
2019-02-19T19:21:08.247Z,101427.02
2019-02-19T19:23:37.490Z,101426.19
2019-02-19T19:26:06.544Z,101430.39
2019-02-19T19:28:35.554Z,101433.34
2019-02-19T19:31:06.435Z,101437.99
2019-02-19T19:33:35.366Z,101440.52
2019-02-19T19:36:04.412Z,101440.92
2019-02-19T19:38:33.441Z,101442.59
2019-02-19T19:41:02.543Z,101443.05
2019-02-19T19:43:31.633Z,101448.53
2019-02-19T19:46:00.627Z,101448.55
2019-02-19T19:48:29.969Z,101448.53
2019-02-19T19:50:59.002Z,101449.37
2019-02-19T19:53:28.043Z,101445.98
2019-02-19T19:55:57.049Z,101459.51
2019-02-19T19:58:26.079Z,101456.97
2019-02-19T20:00:55.131Z,101467.53
2019-02-19T20:03:24.144Z,101476.41
2019-02-19T20:05:53.163Z,101474.28
2019-02-19T20:08:22.146Z,101476.83
2019-02-19T20:10:51.161Z,101475.14
2019-02-19T20:13:20.251Z,101470.90
2019-02-19T20:15:49.588Z,101469.22
2019-02-19T20:18:18.601Z,101472.17
2019-02-19T20:20:47.650Z,101474.28
2019-02-19T20:23:16.677Z,101480.63
2019-02-19T20:25:45.772Z,101475.98
2019-02-19T20:28:15.383Z,101481.92
2019-02-19T20:30:44.438Z,101472.62
2019-02-19T20:33:13.527Z,101474.28
2019-02-19T20:35:42.854Z,101479.36
2019-02-19T20:38:12.139Z,101484.45
2019-02-19T20:40:41.178Z,101488.25
2019-02-19T20:43:10.211Z,101490.38
2019-02-19T20:45:39.252Z,101495.03
2019-02-19T20:48:08.335Z,101492.06
2019-02-19T20:50:37.321Z,101497.14
2019-02-19T20:53:06.326Z,101503.48
2019-02-19T20:55:37.135Z,101507.28
2019-02-19T20:58:06.391Z,101495.46
2019-02-19T21:00:35.464Z,101503.07
2019-02-19T21:03:04.517Z,101500.96
2019-02-19T21:05:33.554Z,101495.89
2019-02-19T21:08:02.632Z,101499.27
2019-02-19T21:10:31.647Z,101504.76
2019-02-19T21:13:00.701Z,101516.61
2019-02-19T21:15:29.729Z,101514.07
2019-02-19T21:17:58.781Z,101511.55
2019-02-19T21:20:28.093Z,101515.36
2019-02-19T21:22:57.161Z,101510.70
2019-02-19T21:25:31.066Z,101507.76
2019-02-19T21:27:56.933Z,101510.29
2019-02-19T21:30:25.955Z,101519.17
2019-02-19T21:32:54.911Z,101511.14
2019-02-19T21:35:23.937Z,101509.88
2019-02-19T21:37:52.955Z,101513.66
2019-02-19T21:40:22.010Z,101514.91
2019-02-19T21:42:51.018Z,101511.53
2019-02-19T21:45:20.066Z,101510.69
2019-02-19T21:47:49.117Z,101513.23
2019-02-19T21:50:18.140Z,101499.30
2019-02-19T21:52:47.573Z,101509.02
2019-02-19T21:55:16.577Z,101504.80
2019-02-19T21:57:45.627Z,101495.49
2019-02-19T22:00:16.157Z,101497.19
2019-02-19T22:02:45.220Z,101494.23
2019-02-19T22:05:14.276Z,101498.90
2019-02-19T22:07:43.289Z,101500.17
2019-02-19T22:10:12.575Z,101504.82
2019-02-19T22:12:41.591Z,101502.30
2019-02-19T22:15:11.068Z,101509.91
2019-02-19T22:17:40.100Z,101511.17
2019-02-19T22:20:15.782Z,101512.02
2019-02-19T22:22:44.810Z,101514.54
2019-02-19T22:25:13.863Z,101519.19
2019-02-19T22:27:42.939Z,101516.64
2019-02-19T22:30:12.076Z,101506.92
2019-02-19T22:32:41.098Z,101517.48
2019-02-19T22:35:10.113Z,101515.80
2019-02-19T22:37:39.276Z,101516.22
2019-02-19T22:40:08.322Z,101520.00
2019-02-19T22:42:37.364Z,101525.48
2019-02-19T22:45:06.581Z,101525.08
2019-02-19T22:47:35.603Z,101516.62
2019-02-19T22:50:04.777Z,101520.86
2019-02-19T22:52:33.786Z,101520.86
2019-02-19T22:55:12.297Z,101524.66
2019-02-19T22:57:41.326Z,101530.58
2019-02-19T23:00:34.465Z,101538.19
2019-02-19T23:03:03.581Z,101538.19
2019-02-19T23:05:33.194Z,101545.37
2019-02-19T23:08:02.266Z,101548.75
2019-02-19T23:10:31.273Z,101537.34
2019-02-19T23:13:00.298Z,101533.55
2019-02-19T23:15:29.672Z,101541.16
2019-02-19T23:17:58.732Z,101536.09
2019-02-19T23:20:28.047Z,101544.11
2019-02-19T23:22:57.075Z,101544.53
2019-02-19T23:25:26.140Z,101544.53
2019-02-19T23:27:55.114Z,101544.95
2019-02-19T23:30:24.205Z,101542.84
2019-02-19T23:32:53.233Z,101562.70
2019-02-19T23:35:31.953Z,101560.59
2019-02-19T23:38:00.930Z,101556.36
2019-02-19T23:40:29.986Z,101553.40
2019-02-19T23:42:58.992Z,101557.62
2019-02-19T23:45:28.046Z,101570.30
2019-02-19T23:47:57.061Z,101552.98
2019-02-19T23:50:26.146Z,101559.31
2019-02-19T23:52:55.184Z,101555.94
2019-02-19T23:55:24.592Z,101552.98
2019-02-19T23:57:53.649Z,101564.81
